Time;durP1;ratioP1;P1;durP2;ratioP2;P2;SDS_P1;SDS_P2;PMS_P1;PMS_P2;Temp;Humidity;BMP_temperature;BMP_pressure;BME280_temperature;BME280_humidity;BME280_pressure;Samples;Min_cycle;Max_cycle;Signal;HPM_P1;HPM_P2
2023/10/31 00:01:01;;;;;;;3.00;2.50;;;16.40;74.40;;;;;;5135217;27;20529;-71
2023/10/31 00:03:26;;;;;;;2.80;2.60;;;16.40;75.20;;;;;;5136301;27;20688;-69
2023/10/31 00:05:52;;;;;;;2.85;2.60;;;16.40;74.40;;;;;;5136089;27;20614;-71
2023/10/31 00:08:17;;;;;;;2.38;2.17;;;16.40;74.40;;;;;;5135059;27;20184;-70
2023/10/31 00:10:44;;;;;;;2.53;2.33;;;16.40;74.40;;;;;;5135825;27;20172;-71
2023/10/31 00:13:10;;;;;;;2.78;2.53;;;16.40;74.40;;;;;;5135581;27;20619;-71
2023/10/31 00:15:36;;;;;;;1.92;1.83;;;16.30;74.40;;;;;;5135000;27;20632;-70
2023/10/31 00:18:02;;;;;;;2.75;2.33;;;16.30;74.40;;;;;;5135379;27;20279;-71
2023/10/31 00:20:27;;;;;;;2.67;2.33;;;16.30;74.40;;;;;;5135957;27;20207;-70
2023/10/31 00:22:53;;;;;;;2.25;2.05;;;16.40;74.40;;;;;;5135133;27;20531;-70
2023/10/31 00:25:19;;;;;;;2.08;1.95;;;16.30;74.40;;;;;;5135431;27;20553;-71
2023/10/31 00:27:45;;;;;;;3.28;2.40;;;16.30;74.40;;;;;;5134616;27;20210;-72
2023/10/31 00:30:10;;;;;;;2.88;2.33;;;16.30;74.40;;;;;;5134841;27;20168;-72
2023/10/31 00:32:36;;;;;;;2.60;2.25;;;16.30;74.40;;;;;;5135495;27;20579;-70
2023/10/31 00:35:01;;;;;;;3.30;2.35;;;16.30;74.40;;;;;;5134526;27;20205;-72
2023/10/31 00:37:27;;;;;;;2.97;2.00;;;16.30;74.40;;;;;;5134843;27;20204;-70
2023/10/31 00:39:52;;;;;;;3.28;2.22;;;16.30;74.40;;;;;;5135325;27;20168;-71
2023/10/31 00:42:18;;;;;;;2.78;1.90;;;16.30;74.40;;;;;;5135232;27;20191;-72
2023/10/31 00:44:43;;;;;;;2.08;1.88;;;16.20;74.30;;;;;;5134891;27;20175;-72
2023/10/31 00:47:09;;;;;;;2.20;1.88;;;16.20;74.30;;;;;;5134699;27;20168;-71
2023/10/31 00:49:35;;;;;;;2.13;1.80;;;16.30;74.40;;;;;;5135302;27;20180;-72
2023/10/31 00:52:01;;;;;;;2.42;2.22;;;16.20;74.30;;;;;;5134265;27;20177;-72
2023/10/31 00:54:26;;;;;;;1.88;1.73;;;16.20;74.30;;;;;;5135065;27;20622;-71
2023/10/31 00:56:52;;;;;;;1.90;1.80;;;16.30;74.40;;;;;;5135218;27;20651;-71
2023/10/31 00:59:20;;;;;;;2.90;1.75;;;16.20;74.30;;;;;;5134159;27;20196;-71
2023/10/31 01:01:46;;;;;;;1.90;1.80;;;16.30;74.40;;;;;;5135041;27;20197;-71
2023/10/31 01:04:11;;;;;;;2.10;1.83;;;16.30;74.40;;;;;;5134007;27;20247;-71
2023/10/31 01:06:43;;;;;;;1.98;1.85;;;16.20;74.30;;;;;;5134775;27;20175;-70
2023/10/31 01:09:11;;;;;;;2.55;1.75;;;16.20;74.30;;;;;;5134361;27;20184;-70
2023/10/31 01:11:37;;;;;;;2.40;2.20;;;16.20;74.30;;;;;;5134297;27;20160;-71
2023/10/31 01:14:03;;;;;;;2.10;1.90;;;16.20;74.40;;;;;;5134555;27;20297;-72
2023/10/31 01:16:28;;;;;;;1.67;1.58;;;16.20;74.30;;;;;;5134491;27;20269;-69
2023/10/31 01:18:54;;;;;;;2.03;1.80;;;16.20;74.30;;;;;;5133538;27;20172;-71
2023/10/31 01:21:19;;;;;;;2.83;1.88;;;16.20;74.30;;;;;;5133440;27;20571;-70
2023/10/31 01:23:45;;;;;;;1.40;1.30;;;16.20;74.30;;;;;;5133538;27;20738;-70
2023/10/31 01:26:10;;;;;;;1.50;1.38;;;16.20;74.30;;;;;;5131476;27;20186;-71
2023/10/31 01:28:36;;;;;;;1.98;1.63;;;16.20;74.30;;;;;;5133917;27;20255;-71
2023/10/31 01:31:02;;;;;;;3.20;1.83;;;16.20;74.30;;;;;;5133861;27;20176;-72
2023/10/31 01:33:27;;;;;;;1.55;1.45;;;16.20;74.30;;;;;;5133038;27;20200;-71
2023/10/31 01:35:53;;;;;;;2.03;1.80;;;16.20;74.40;;;;;;5133910;27;20239;-72
2023/10/31 01:38:18;;;;;;;2.00;1.50;;;16.10;74.20;;;;;;5132830;27;20179;-71
2023/10/31 01:40:45;;;;;;;2.15;1.95;;;16.20;74.30;;;;;;5132482;27;20631;-71
2023/10/31 01:43:11;;;;;;;3.33;1.75;;;16.20;74.30;;;;;;5132107;27;20178;-72
2023/10/31 01:45:36;;;;;;;1.60;1.50;;;16.20;74.30;;;;;;5134141;27;20169;-72
2023/10/31 01:48:04;;;;;;;1.75;1.65;;;16.10;74.30;;;;;;5133188;27;20219;-72
2023/10/31 01:50:30;;;;;;;1.80;1.70;;;16.10;74.30;;;;;;5134003;27;20213;-71
2023/10/31 01:52:55;;;;;;;1.70;1.60;;;16.10;74.30;;;;;;5115344;27;20578;-72
2023/10/31 01:55:22;;;;;;;1.55;1.45;;;16.20;74.30;;;;;;5133063;27;20204;-72
2023/10/31 01:57:47;;;;;;;1.50;1.38;;;16.10;74.30;;;;;;5115911;27;20168;-70
2023/10/31 02:00:13;;;;;;;1.90;1.80;;;16.10;74.30;;;;;;5115352;27;20173;-71
2023/10/31 02:02:41;;;;;;;2.20;1.65;;;16.10;74.20;;;;;;5115187;27;20172;-69
2023/10/31 02:05:06;;;;;;;1.50;1.40;;;16.10;74.30;;;;;;5133646;27;20195;-70
2023/10/31 02:07:32;;;;;;;2.35;1.90;;;16.10;74.30;;;;;;5114828;27;20626;-70
2023/10/31 02:09:57;;;;;;;2.67;1.75;;;16.10;74.30;;;;;;5133457;27;20181;-71
2023/10/31 02:12:36;;;;;;;1.50;1.40;;;16.10;74.30;;;;;;5133810;28;20225;-70
2023/10/31 02:15:02;;;;;;;1.50;1.40;;;16.10;74.30;;;;;;5132697;28;20221;-71
2023/10/31 02:17:27;;;;;;;1.50;1.40;;;16.10;74.20;;;;;;5133905;28;20177;-70
2023/10/31 02:19:53;;;;;;;2.20;2.00;;;16.10;74.20;;;;;;5133981;28;20649;-70
2023/10/31 02:22:22;;;;;;;1.52;1.42;;;16.10;74.20;;;;;;5132686;28;20253;-69
2023/10/31 02:24:48;;;;;;;2.10;1.90;;;16.10;74.20;;;;;;5133933;28;20183;-71
2023/10/31 02:27:13;;;;;;;1.67;1.40;;;16.10;74.20;;;;;;5133350;28;20164;-71
2023/10/31 02:29:42;;;;;;;1.98;1.77;;;16.10;74.20;;;;;;5133142;28;20235;-71
2023/10/31 02:32:07;;;;;;;2.00;1.90;;;16.10;74.20;;;;;;5133575;28;20168;-72
2023/10/31 02:34:34;;;;;;;1.60;1.50;;;16.10;74.20;;;;;;5133661;28;20230;-70
2023/10/31 02:36:59;;;;;;;1.90;1.70;;;16.10;74.20;;;;;;5132900;28;20184;-72
2023/10/31 02:39:25;;;;;;;1.95;1.75;;;16.10;74.30;;;;;;5133770;28;20172;-70
2023/10/31 02:41:50;;;;;;;2.20;1.88;;;16.10;74.30;;;;;;5133582;28;20195;-71
2023/10/31 02:44:16;;;;;;;1.77;1.67;;;16.10;74.20;;;;;;5132538;28;20191;-72
2023/10/31 02:46:44;;;;;;;1.60;1.50;;;16.10;74.20;;;;;;5115203;28;20533;-72
2023/10/31 02:49:10;;;;;;;1.80;1.70;;;16.00;74.20;;;;;;5132910;27;20224;-72
2023/10/31 02:51:35;;;;;;;2.17;1.80;;;16.10;74.30;;;;;;5136437;27;20172;-71
2023/10/31 02:54:01;;;;;;;2.00;1.80;;;16.10;74.30;;;;;;5137415;27;20178;-71
2023/10/31 02:56:26;;;;;;;1.95;1.63;;;16.10;74.30;;;;;;5137410;27;20689;-71
2023/10/31 02:58:52;;;;;;;2.00;1.80;;;16.10;74.20;;;;;;5136690;27;20180;-72
2023/10/31 03:01:19;;;;;;;2.67;1.73;;;16.00;74.20;;;;;;5137025;27;20180;-72
2023/10/31 03:03:45;;;;;;;1.90;1.77;;;16.00;74.20;;;;;;5136443;27;20594;-72
2023/10/31 03:06:11;;;;;;;2.28;1.67;;;16.10;74.20;;;;;;5136891;27;20646;-71
2023/10/31 03:08:36;;;;;;;1.63;1.33;;;16.00;74.20;;;;;;5137338;27;20177;-71
2023/10/31 03:11:02;;;;;;;1.90;1.80;;;16.00;74.20;;;;;;5136211;27;20204;-71
2023/10/31 03:13:27;;;;;;;2.50;1.73;;;16.00;74.20;;;;;;5118895;27;20196;-70
2023/10/31 03:15:53;;;;;;;2.17;1.52;;;16.00;74.20;;;;;;5136869;27;20674;-71
2023/10/31 03:18:18;;;;;;;2.10;1.90;;;16.00;74.20;;;;;;5135972;27;20657;-71
2023/10/31 03:20:45;;;;;;;2.40;1.60;;;16.00;74.20;;;;;;5137144;27;20181;-70
2023/10/31 03:23:11;;;;;;;2.05;1.77;;;16.00;74.20;;;;;;5136467;27;20199;-70
2023/10/31 03:25:37;;;;;;;1.95;1.70;;;16.00;74.20;;;;;;5136006;27;20639;-70
2023/10/31 03:28:03;;;;;;;2.70;1.98;;;16.00;74.20;;;;;;5136269;27;20697;-72
2023/10/31 03:30:28;;;;;;;1.80;1.70;;;16.00;74.20;;;;;;5136750;27;20195;-71
2023/10/31 03:32:54;;;;;;;1.52;1.42;;;16.00;74.20;;;;;;5135544;27;20631;-72
2023/10/31 03:35:19;;;;;;;2.47;1.77;;;16.00;74.20;;;;;;5136516;27;20207;-70
2023/10/31 03:37:45;;;;;;;1.88;1.70;;;16.00;74.20;;;;;;5136643;27;20172;-71
2023/10/31 03:40:11;;;;;;;2.10;1.88;;;16.00;74.30;;;;;;5135681;27;20175;-71
2023/10/31 03:42:36;;;;;;;2.10;1.58;;;16.00;74.20;;;;;;5136729;27;20179;-71
2023/10/31 03:45:02;;;;;;;1.98;1.70;;;16.00;74.20;;;;;;5136266;27;20208;-72
2023/10/31 03:47:27;;;;;;;2.22;1.90;;;16.00;74.20;;;;;;5135634;27;20216;-72
2023/10/31 03:49:56;;;;;;;1.77;1.67;;;16.00;74.20;;;;;;5136663;27;20524;-71
2023/10/31 03:52:22;;;;;;;1.77;1.67;;;16.00;74.20;;;;;;5135877;27;20207;-71
2023/10/31 03:54:47;;;;;;;2.25;1.92;;;16.00;74.20;;;;;;5135569;27;20227;-71
2023/10/31 03:57:13;;;;;;;1.70;1.60;;;16.00;74.30;;;;;;5135952;27;20258;-72
2023/10/31 03:59:39;;;;;;;1.77;1.67;;;16.00;74.20;;;;;;5136024;27;20255;-70
2023/10/31 04:02:04;;;;;;;1.60;1.50;;;16.00;74.20;;;;;;5133991;27;20184;-71
2023/10/31 04:04:30;;;;;;;1.73;1.63;;;16.00;74.30;;;;;;5136145;27;20179;-69
2023/10/31 04:06:55;;;;;;;1.95;1.63;;;16.00;74.30;;;;;;5135745;27;20176;-71
2023/10/31 04:09:21;;;;;;;1.95;1.85;;;16.00;74.20;;;;;;5135521;27;20165;-71
2023/10/31 04:11:46;;;;;;;1.70;1.60;;;16.00;74.30;;;;;;5136094;27;20199;-71
2023/10/31 04:14:12;;;;;;;2.33;1.67;;;16.00;74.30;;;;;;5134786;27;20194;-71
2023/10/31 04:16:39;;;;;;;1.60;1.50;;;16.00;74.30;;;;;;5135712;27;20245;-70
2023/10/31 04:19:05;;;;;;;1.92;1.60;;;16.00;74.30;;;;;;5135742;27;20180;-71
2023/10/31 04:21:30;;;;;;;1.73;1.63;;;16.00;74.30;;;;;;5135008;27;20534;-70
2023/10/31 04:23:56;;;;;;;1.70;1.60;;;16.00;74.30;;;;;;5135696;27;20221;-71
2023/10/31 04:26:21;;;;;;;1.48;1.38;;;16.00;74.30;;;;;;5135225;27;20160;-73
2023/10/31 04:28:47;;;;;;;1.65;1.55;;;16.00;74.30;;;;;;5134855;27;20172;-73
2023/10/31 04:31:12;;;;;;;1.40;1.30;;;16.00;74.40;;;;;;5135142;27;20172;-73
2023/10/31 04:33:38;;;;;;;1.80;1.40;;;16.00;74.40;;;;;;5135707;27;20168;-72
2023/10/31 04:36:04;;;;;;;1.70;1.60;;;16.00;74.40;;;;;;5134259;27;20208;-72
2023/10/31 04:38:29;;;;;;;2.45;1.58;;;16.00;74.40;;;;;;5135582;27;20168;-72
2023/10/31 04:40:55;;;;;;;3.80;1.77;;;16.00;74.40;;;;;;5135694;27;20253;-72
2023/10/31 04:43:20;;;;;;;2.85;1.90;;;16.00;74.40;;;;;;5134456;27;20175;-72
2023/10/31 04:45:46;;;;;;;1.52;1.30;;;16.00;74.40;;;;;;5135241;27;20288;-73
2023/10/31 04:48:11;;;;;;;1.50;1.40;;;15.90;74.30;;;;;;5134718;27;20614;-72
2023/10/31 04:50:37;;;;;;;1.60;1.50;;;15.90;74.30;;;;;;5134712;27;20172;-72
2023/10/31 04:53:03;;;;;;;3.05;1.33;;;16.00;74.40;;;;;;5134967;27;20221;-72
2023/10/31 04:55:28;;;;;;;1.30;1.10;;;16.00;74.40;;;;;;5135255;27;20208;-71
2023/10/31 04:57:54;;;;;;;1.30;1.20;;;16.00;74.40;;;;;;5134392;27;20168;-72
2023/10/31 05:00:19;;;;;;;1.30;1.20;;;16.00;74.40;;;;;;5134650;27;20177;-71
2023/10/31 05:02:45;;;;;;;1.45;1.35;;;16.00;74.40;;;;;;5134939;27;20521;-71
2023/10/31 05:05:11;;;;;;;1.55;1.45;;;16.00;74.40;;;;;;5134219;27;20172;-71
2023/10/31 05:07:37;;;;;;;1.30;1.20;;;15.90;74.40;;;;;;5134891;27;20515;-70
2023/10/31 05:10:02;;;;;;;1.60;1.30;;;15.90;74.40;;;;;;5134649;27;20218;-71
2023/10/31 05:12:28;;;;;;;1.67;1.17;;;15.90;74.40;;;;;;5134048;27;20169;-71
2023/10/31 05:14:53;;;;;;;1.25;1.15;;;16.00;74.50;;;;;;5134683;27;20235;-72
2023/10/31 05:17:19;;;;;;;1.42;1.13;;;15.90;74.40;;;;;;5133880;27;20251;-71
2023/10/31 05:19:44;;;;;;;1.30;1.20;;;16.00;74.50;;;;;;5134720;27;20180;-71
2023/10/31 05:22:10;;;;;;;1.48;1.27;;;15.90;74.40;;;;;;5134503;27;20168;-71
2023/10/31 05:24:36;;;;;;;1.17;1.08;;;15.90;74.40;;;;;;5134037;27;20942;-70
2023/10/31 05:27:01;;;;;;;1.52;1.40;;;15.90;74.40;;;;;;5116113;27;20172;-72
2023/10/31 05:29:27;;;;;;;1.65;1.10;;;15.90;74.40;;;;;;5134427;27;20204;-70
2023/10/31 05:31:52;;;;;;;1.45;1.20;;;15.90;74.40;;;;;;5133903;27;20511;-72
2023/10/31 05:34:18;;;;;;;3.40;1.65;;;15.90;74.50;;;;;;5134263;27;20188;-72
2023/10/31 05:36:43;;;;;;;1.35;1.20;;;15.90;74.50;;;;;;5134502;27;20567;-71
2023/10/31 05:39:09;;;;;;;1.38;1.27;;;15.90;74.50;;;;;;5133393;27;20622;-72
2023/10/31 05:41:35;;;;;;;1.52;1.20;;;15.90;74.50;;;;;;5134337;27;20649;-71
2023/10/31 05:44:00;;;;;;;1.33;1.17;;;15.90;74.50;;;;;;5134039;27;20260;-72
2023/10/31 05:46:26;;;;;;;3.55;1.30;;;15.90;74.50;;;;;;5133513;27;20585;-72
2023/10/31 05:48:52;;;;;;;1.20;1.10;;;15.90;74.50;;;;;;5134284;27;20232;-72
2023/10/31 05:51:18;;;;;;;2.25;1.00;;;15.90;74.50;;;;;;5133851;27;20173;-72
2023/10/31 05:53:45;;;;;;;1.05;1.02;;;15.90;74.50;;;;;;5133206;27;20580;-71
2023/10/31 05:56:11;;;;;;;1.10;1.00;;;15.90;74.50;;;;;;5133897;27;20279;-72
2023/10/31 05:58:37;;;;;;;2.08;1.20;;;15.90;74.50;;;;;;5133902;27;20263;-71
2023/10/31 06:01:03;;;;;;;1.33;1.23;;;15.90;74.50;;;;;;5133204;27;20207;-71
2023/10/31 06:03:29;;;;;;;1.30;1.20;;;15.90;74.50;;;;;;5134180;27;20211;-70
2023/10/31 06:05:54;;;;;;;1.20;1.08;;;15.90;74.50;;;;;;5134010;27;20212;-69
2023/10/31 06:08:24;;;;;;;1.48;1.10;;;15.90;74.50;;;;;;5132910;27;20222;-70
2023/10/31 06:10:50;;;;;;;0.95;0.90;;;15.90;74.50;;;;;;5134050;27;20173;-71
2023/10/31 06:13:16;;;;;;;1.45;1.33;;;15.90;74.50;;;;;;5133540;28;20188;-71
2023/10/31 06:15:42;;;;;;;1.20;1.10;;;15.90;74.50;;;;;;5133204;28;20211;-71
2023/10/31 06:18:07;;;;;;;1.25;1.15;;;15.90;74.50;;;;;;5133606;28;20169;-71
2023/10/31 06:20:34;;;;;;;2.15;1.15;;;15.90;74.50;;;;;;5133334;28;20700;-71
2023/10/31 06:23:01;;;;;;;2.45;1.33;;;15.90;74.50;;;;;;5133553;28;20203;-70
2023/10/31 06:25:26;;;;;;;1.30;1.17;;;15.90;74.50;;;;;;5135582;27;20183;-70
2023/10/31 06:27:52;;;;;;;2.80;1.27;;;15.80;74.40;;;;;;5137258;27;20177;-72
2023/10/31 06:30:17;;;;;;;1.35;1.25;;;15.90;74.50;;;;;;5137862;27;20564;-71
2023/10/31 06:32:43;;;;;;;1.10;1.00;;;15.80;74.40;;;;;;5138019;27;20187;-72
2023/10/31 06:35:08;;;;;;;1.08;1.00;;;15.90;74.50;;;;;;5136952;27;20286;-71
2023/10/31 06:37:36;;;;;;;1.50;1.30;;;15.90;74.50;;;;;;5137846;27;20256;-71
2023/10/31 06:40:01;;;;;;;2.15;1.10;;;15.90;74.50;;;;;;5137511;27;20179;-72
2023/10/31 06:42:27;;;;;;;1.10;1.00;;;15.90;74.50;;;;;;5137007;27;20173;-71
2023/10/31 06:44:53;;;;;;;1.00;0.90;;;15.90;74.50;;;;;;5137899;27;20204;-73
2023/10/31 06:47:19;;;;;;;1.33;1.23;;;15.90;74.50;;;;;;5137272;27;20179;-72
2023/10/31 06:49:44;;;;;;;1.92;1.10;;;15.80;74.40;;;;;;5136990;27;20172;-72
2023/10/31 06:52:13;;;;;;;1.45;1.00;;;15.90;74.50;;;;;;5137182;27;20168;-72
2023/10/31 06:54:38;;;;;;;1.50;1.30;;;15.90;74.50;;;;;;5137450;27;20176;-71
2023/10/31 06:57:04;;;;;;;1.05;1.00;;;15.90;74.50;;;;;;5136429;27;20179;-72
2023/10/31 06:59:29;;;;;;;1.40;0.95;;;15.90;74.40;;;;;;5137601;27;20214;-71
2023/10/31 07:01:55;;;;;;;1.10;1.00;;;15.80;74.30;;;;;;5137514;27;20199;-71
2023/10/31 07:04:21;;;;;;;2.15;1.20;;;15.80;74.30;;;;;;5136384;27;20529;-70
2023/10/31 07:06:46;;;;;;;1.00;0.93;;;15.90;74.40;;;;;;5137203;27;20172;-70
2023/10/31 07:09:12;;;;;;;0.90;0.80;;;15.90;74.30;;;;;;5136790;27;20180;-71
2023/10/31 07:11:37;;;;;;;1.75;1.02;;;15.90;74.20;;;;;;5136352;27;20171;-70
2023/10/31 07:14:03;;;;;;;1.17;1.08;;;16.00;74.20;;;;;;5136680;27;20172;-71
2023/10/31 07:16:29;;;;;;;1.05;0.90;;;16.00;74.10;;;;;;5136881;27;20216;-70
2023/10/31 07:18:54;;;;;;;1.83;1.17;;;16.00;74.20;;;;;;5136603;27;20208;-71
2023/10/31 07:21:20;;;;;;;1.17;1.00;;;16.10;74.30;;;;;;5136735;27;20201;-70
2023/10/31 07:23:46;;;;;;;2.10;1.00;;;16.20;74.20;;;;;;5136911;27;20626;-69
2023/10/31 07:26:11;;;;;;;1.10;0.90;;;16.30;74.20;;;;;;5135680;27;20194;-71
2023/10/31 07:28:36;;;;;;;1.30;0.90;;;16.40;74.00;;;;;;5136993;27;20177;-70
2023/10/31 07:31:02;;;;;;;0.88;0.88;;;16.60;73.70;;;;;;5135837;27;20164;-70
2023/10/31 07:33:28;;;;;;;0.85;0.80;;;16.70;73.30;;;;;;5136639;27;20537;-71
2023/10/31 07:35:53;;;;;;;1.48;0.95;;;16.80;73.00;;;;;;5136093;27;20303;-69
2023/10/31 07:38:19;;;;;;;1.80;1.00;;;17.00;72.80;;;;;;5134850;27;20169;-70
2023/10/31 07:40:44;;;;;;;2.05;0.88;;;17.20;72.40;;;;;;5136594;27;20259;-69
2023/10/31 07:43:10;;;;;;;1.27;0.90;;;17.50;71.60;;;;;;5136422;27;20255;-67
2023/10/31 07:45:35;;;;;;;2.05;0.90;;;17.60;71.40;;;;;;5135875;27;20544;-68
2023/10/31 07:48:01;;;;;;;2.88;1.25;;;17.80;70.80;;;;;;5136193;27;20734;-67
2023/10/31 07:50:27;;;;;;;1.95;0.95;;;17.90;70.50;;;;;;5136228;27;20180;-68
2023/10/31 07:52:53;;;;;;;4.25;1.30;;;18.00;70.40;;;;;;5135831;27;20192;-68
2023/10/31 07:55:18;;;;;;;1.58;1.02;;;18.00;70.30;;;;;;5135823;27;20775;-66
2023/10/31 07:57:44;;;;;;;1.80;1.30;;;18.10;70.10;;;;;;5136038;27;20223;-67
2023/10/31 08:00:11;;;;;;;2.25;1.52;;;18.20;70.20;;;;;;5135363;27;20175;-66
2023/10/31 08:02:36;;;;;;;2.25;1.08;;;18.10;70.20;;;;;;5136168;27;20184;-66
2023/10/31 08:05:02;;;;;;;5.07;1.27;;;18.20;70.30;;;;;;5135769;27;20224;-67
2023/10/31 08:07:30;;;;;;;2.58;1.20;;;18.10;70.40;;;;;;5135855;27;20187;-66
2023/10/31 08:09:56;;;;;;;2.88;1.30;;;18.00;70.70;;;;;;5135880;27;20165;-67
2023/10/31 08:12:21;;;;;;;3.30;1.20;;;17.90;71.00;;;;;;5135984;27;20169;-67
2023/10/31 08:14:47;;;;;;;2.53;1.30;;;17.90;71.30;;;;;;5135269;27;20172;-67
2023/10/31 08:17:12;;;;;;;1.33;1.10;;;17.70;71.60;;;;;;5135529;27;20955;-67
2023/10/31 08:19:38;;;;;;;1.58;1.00;;;17.70;71.70;;;;;;5134586;27;20165;-67
2023/10/31 08:22:03;;;;;;;2.15;1.50;;;17.60;71.90;;;;;;5133617;27;20181;-67
2023/10/31 08:24:29;;;;;;;1.40;1.20;;;17.50;72.00;;;;;;5135636;27;20165;-66
2023/10/31 08:26:55;;;;;;;3.78;1.83;;;17.50;72.40;;;;;;5135930;27;20161;-68
2023/10/31 08:29:20;;;;;;;1.95;1.20;;;17.40;72.50;;;;;;5134588;27;20172;-68
2023/10/31 08:31:46;;;;;;;1.42;1.27;;;17.40;72.50;;;;;;5135499;27;20176;-68
2023/10/31 08:34:11;;;;;;;1.52;1.33;;;17.30;72.60;;;;;;5134761;27;20198;-68
2023/10/31 08:36:37;;;;;;;3.10;1.50;;;17.30;72.70;;;;;;5135118;27;20200;-67
2023/10/31 08:39:03;;;;;;;1.63;1.17;;;17.30;72.90;;;;;;5135080;27;20168;-68
2023/10/31 08:41:29;;;;;;;2.65;1.45;;;17.20;73.00;;;;;;5134913;27;20240;-68
2023/10/31 08:43:54;;;;;;;2.95;1.48;;;17.10;73.10;;;;;;5135325;27;20642;-68
2023/10/31 08:46:20;;;;;;;1.55;1.45;;;17.10;73.20;;;;;;5135091;27;20164;-68
2023/10/31 08:48:45;;;;;;;1.65;1.20;;;17.10;73.30;;;;;;5133853;27;20273;-68
2023/10/31 08:51:11;;;;;;;2.88;1.55;;;17.00;73.30;;;;;;5135009;27;20172;-68
2023/10/31 08:53:36;;;;;;;1.80;1.25;;;17.00;73.40;;;;;;5135202;27;20180;-68
2023/10/31 08:56:02;;;;;;;1.52;1.10;;;17.00;73.60;;;;;;5133956;27;20693;-68
2023/10/31 08:58:28;;;;;;;1.33;1.02;;;17.00;73.60;;;;;;5135313;27;20179;-67
2023/10/31 09:00:53;;;;;;;1.95;1.17;;;17.00;73.60;;;;;;5135266;27;20569;-68
2023/10/31 09:03:19;;;;;;;1.33;1.23;;;17.00;73.70;;;;;;5133955;27;20623;-68
2023/10/31 09:05:45;;;;;;;2.33;1.23;;;17.00;73.80;;;;;;5134891;27;20172;-67
2023/10/31 09:08:10;;;;;;;2.30;1.05;;;16.90;73.80;;;;;;5134479;27;20251;-68
2023/10/31 09:10:37;;;;;;;2.38;1.05;;;16.90;73.80;;;;;;5134369;27;20168;-68
2023/10/31 09:13:03;;;;;;;3.03;1.30;;;17.00;73.70;;;;;;5134798;27;20177;-67
2023/10/31 09:15:28;;;;;;;1.30;1.20;;;17.00;73.60;;;;;;5134823;27;20196;-67
2023/10/31 09:17:54;;;;;;;1.60;1.20;;;17.10;73.50;;;;;;5134159;27;20560;-67
2023/10/31 09:20:20;;;;;;;1.08;0.98;;;17.20;73.40;;;;;;5134425;27;20630;-67
2023/10/31 09:22:45;;;;;;;1.17;1.00;;;17.20;73.30;;;;;;5134750;27;20180;-67
2023/10/31 09:25:11;;;;;;;1.63;1.13;;;17.10;73.40;;;;;;5133754;27;20216;-67
2023/10/31 09:27:38;;;;;;;1.98;1.13;;;17.10;73.50;;;;;;5134437;27;20175;-68
2023/10/31 09:30:05;;;;;;;1.75;1.00;;;17.10;73.50;;;;;;5115767;27;20208;-68
2023/10/31 09:32:30;;;;;;;1.50;1.35;;;17.10;73.60;;;;;;5133856;27;20168;-66
2023/10/31 09:34:56;;;;;;;1.70;1.15;;;17.10;73.80;;;;;;5134268;27;20200;-67
2023/10/31 09:37:21;;;;;;;1.20;1.05;;;17.00;73.80;;;;;;5134151;27;20173;-66
2023/10/31 09:39:47;;;;;;;1.88;1.38;;;16.90;73.90;;;;;;5133266;27;20168;-67
2023/10/31 09:42:13;;;;;;;2.05;1.00;;;17.00;74.10;;;;;;5133937;27;20172;-68
2023/10/31 09:44:38;;;;;;;1.30;1.10;;;17.00;74.30;;;;;;5115415;27;20175;-68
2023/10/31 09:47:04;;;;;;;2.38;1.30;;;16.90;74.20;;;;;;5115466;27;20251;-67
2023/10/31 09:49:30;;;;;;;1.65;1.10;;;16.90;74.20;;;;;;5099062;27;20180;-68
2023/10/31 09:51:58;;;;;;;3.38;1.17;;;17.00;74.20;;;;;;5133623;27;20183;-68
2023/10/31 09:54:24;;;;;;;2.05;1.38;;;17.10;74.20;;;;;;5116398;27;20171;-67
2023/10/31 09:56:49;;;;;;;0.80;0.80;;;17.10;74.20;;;;;;5133975;27;20208;-67
2023/10/31 09:59:15;;;;;;;1.60;1.25;;;17.10;74.30;;;;;;5132480;27;20175;-67
2023/10/31 10:01:41;;;;;;;2.10;1.10;;;17.10;74.40;;;;;;5133823;27;20179;-67
2023/10/31 10:04:07;;;;;;;1.77;1.20;;;17.20;74.30;;;;;;5133654;27;20172;-66
2023/10/31 10:06:32;;;;;;;2.60;1.00;;;17.20;74.30;;;;;;5133149;27;20626;-67
2023/10/31 10:08:58;;;;;;;1.70;1.17;;;17.20;74.20;;;;;;5133871;27;20623;-67
2023/10/31 10:11:24;;;;;;;1.80;1.05;;;17.10;75.10;;;;;;5128983;27;20657;-66
2023/10/31 10:13:52;;;;;;;1.08;0.95;;;17.10;74.40;;;;;;5122498;27;20623;-66
2023/10/31 10:16:31;;;;;;;2.20;1.20;;;17.10;74.60;;;;;;5121541;28;20212;-67
2023/10/31 10:18:56;;;;;;;2.08;1.75;;;17.10;74.60;;;;;;5121877;28;20196;-66
2023/10/31 10:21:22;;;;;;;2.08;1.30;;;17.10;75.50;;;;;;5122761;28;20265;-66
2023/10/31 10:23:49;;;;;;;2.08;1.00;;;17.10;74.70;;;;;;5122935;28;20597;-66
2023/10/31 10:26:14;;;;;;;1.13;0.88;;;17.10;74.80;;;;;;5121674;28;20183;-67
2023/10/31 10:28:40;;;;;;;2.25;1.20;;;17.10;74.70;;;;;;5112150;28;20538;-67
2023/10/31 10:31:06;;;;;;;2.92;1.10;;;17.00;74.70;;;;;;5133381;28;20207;-66
2023/10/31 10:33:33;;;;;;;2.17;1.45;;;17.10;74.80;;;;;;5133541;28;20172;-67
2023/10/31 10:35:59;;;;;;;1.48;1.00;;;17.10;74.70;;;;;;5132424;28;20208;-67
2023/10/31 10:38:24;;;;;;;1.77;1.10;;;17.10;74.70;;;;;;5115416;28;20213;-66
2023/10/31 10:40:50;;;;;;;1.73;1.00;;;17.10;74.70;;;;;;5097734;28;20165;-67
2023/10/31 10:43:23;;;;;;;1.20;1.08;;;17.10;74.60;;;;;;5115053;28;20195;-66
2023/10/31 10:45:56;;;;;;;1.77;1.30;;;17.10;74.70;;;;;;5133616;28;20176;-67
2023/10/31 10:48:22;;;;;;;0.95;0.95;;;17.10;74.70;;;;;;5132260;28;20624;-68
2023/10/31 10:51:10;;;;;;;1.20;1.10;;;17.00;74.70;;;;;;5132101;28;20259;-68
2023/10/31 10:53:42;;;;;;;1.52;1.00;;;17.00;74.80;;;;;;5087773;28;20193;-69
2023/10/31 10:56:13;;;;;;;5.57;1.55;;;17.10;74.90;;;;;;5114479;28;20215;-68
2023/10/31 10:59:06;;;;;;;2.00;1.10;;;17.10;74.80;;;;;;5105180;28;20252;-67
2023/10/31 11:01:32;;;;;;;1.23;1.00;;;17.00;74.70;;;;;;5105544;28;20699;-67
2023/10/31 11:04:00;;;;;;;1.30;1.20;;;17.00;74.60;;;;;;5114283;28;20173;-67
2023/10/31 11:06:26;;;;;;;1.02;1.00;;;17.00;74.70;;;;;;5100368;28;20264;-67
2023/10/31 11:08:51;;;;;;;1.40;1.30;;;17.00;74.60;;;;;;5094587;28;20576;-67
2023/10/31 11:11:17;;;;;;;3.22;0.98;;;17.00;74.60;;;;;;5095181;28;20571;-67
2023/10/31 11:13:45;;;;;;;1.25;1.10;;;17.00;74.50;;;;;;5101548;27;20632;-68
2023/10/31 11:16:16;;;;;;;2.17;1.05;;;17.10;74.30;;;;;;5117679;27;20208;-67
2023/10/31 11:18:42;;;;;;;1.15;1.05;;;17.20;74.30;;;;;;5137137;27;20173;-67
2023/10/31 11:21:07;;;;;;;1.05;0.90;;;17.20;74.10;;;;;;5136907;27;20297;-67
2023/10/31 11:23:33;;;;;;;1.73;1.17;;;17.20;74.00;;;;;;5136212;27;20622;-67
2023/10/31 11:25:58;;;;;;;2.08;1.20;;;17.30;73.70;;;;;;5136191;27;20682;-67
2023/10/31 11:28:24;;;;;;;2.20;1.05;;;17.40;73.70;;;;;;5118429;27;20168;-67
2023/10/31 11:30:50;;;;;;;1.10;1.00;;;17.40;73.70;;;;;;5114376;28;20576;-68
2023/10/31 11:33:18;;;;;;;2.15;1.20;;;17.40;73.70;;;;;;5114900;28;20181;-68
2023/10/31 11:35:47;;;;;;;1.08;0.98;;;17.40;73.70;;;;;;5115779;28;20715;-67
2023/10/31 11:38:12;;;;;;;1.67;1.10;;;17.30;74.10;;;;;;5115295;28;20177;-68
2023/10/31 11:40:57;;;;;;;1.52;0.98;;;17.20;74.30;;;;;;5115943;28;20526;-67
2023/10/31 11:43:23;;;;;;;2.38;1.23;;;17.20;74.50;;;;;;5099528;28;20170;-68
2023/10/31 11:45:48;;;;;;;1.23;1.02;;;17.10;74.60;;;;;;5115133;28;20184;-68
2023/10/31 11:48:14;;;;;;;1.13;1.00;;;17.10;74.60;;;;;;5115515;28;20244;-68
2023/10/31 11:50:40;;;;;;;2.17;1.00;;;17.00;75.50;;;;;;5115984;28;20188;-68
2023/10/31 11:53:13;;;;;;;2.58;1.17;;;17.00;74.70;;;;;;5114989;28;20173;-68
2023/10/31 11:55:43;;;;;;;2.38;0.90;;;17.00;74.80;;;;;;5115739;28;20265;-67
2023/10/31 11:58:15;;;;;;;2.20;1.38;;;17.00;74.80;;;;;;5115173;28;20177;-68
2023/10/31 12:00:41;;;;;;;1.70;1.30;;;17.00;74.70;;;;;;5115683;28;20214;-68
2023/10/31 12:03:06;;;;;;;1.95;1.17;;;17.00;74.60;;;;;;5114977;28;20181;-67
2023/10/31 12:05:31;;;;;;;2.65;1.42;;;17.10;74.60;;;;;;5122891;27;20168;-67
2023/10/31 12:07:57;;;;;;;1.92;1.48;;;17.10;74.40;;;;;;5136149;27;20201;-69
2023/10/31 12:10:29;;;;;;;4.13;1.90;;;17.10;74.30;;;;;;5135385;27;20594;-67
2023/10/31 12:12:55;;;;;;;2.70;1.23;;;17.10;74.20;;;;;;5135463;27;20196;-68
2023/10/31 12:15:21;;;;;;;2.40;1.60;;;17.10;74.20;;;;;;5135924;27;20639;-69
2023/10/31 12:17:46;;;;;;;2.65;1.60;;;17.10;74.20;;;;;;5135774;27;20210;-69
2023/10/31 12:20:12;;;;;;;3.85;1.67;;;17.10;74.20;;;;;;5136702;27;20702;-73
2023/10/31 12:22:39;;;;;;;7.07;2.17;;;17.10;74.20;;;;;;5134899;27;20731;-69
2023/10/31 12:25:07;;;;;;;4.57;2.47;;;17.10;74.20;;;;;;5135620;27;20172;-68
2023/10/31 12:27:49;;;;;;;2.65;2.10;;;17.10;74.10;;;;;;5134983;27;20168;-68
2023/10/31 12:30:19;;;;;;;3.17;1.67;;;17.20;74.20;;;;;;5135455;27;20183;-69
2023/10/31 12:32:45;;;;;;;3.83;2.53;;;17.30;73.80;;;;;;5135982;27;20173;-70
2023/10/31 12:35:16;;;;;;;5.32;2.13;;;17.30;73.80;;;;;;5134479;27;20529;-70
2023/10/31 12:37:47;;;;;;;4.68;2.58;;;17.30;73.90;;;;;;5118043;27;20176;-69
2023/10/31 12:40:14;;;;;;;6.80;3.10;;;17.30;73.80;;;;;;5117139;27;20281;-73
2023/10/31 12:42:40;;;;;;;3.42;2.10;;;17.30;73.80;;;;;;5134744;27;20225;-69